Time;durP1;ratioP1;P1;durP2;ratioP2;P2;SDS_P1;SDS_P2;PMS_P1;PMS_P2;Temp;Humidity;BMP_temperature;BMP_pressure;BME280_temperature;BME280_humidity;BME280_pressure;Samples;Min_cycle;Max_cycle;Signal;HPM_P1;HPM_P2
2022/03/08 00:00:17;;;;;;;0.10;0.10;;;;;;;;;;5008592;28;20100;-89
2022/03/08 00:02:43;;;;;;;0.10;0.10;;;;;;;;;;5008529;28;20266;-88
2022/03/08 00:05:09;;;;;;;0.10;0.10;;;;;;;;;;4992142;28;20044;-89
2022/03/08 00:07:35;;;;;;;0.10;0.10;;;;;;;;;;4992190;28;20468;-89
2022/03/08 00:10:01;;;;;;;0.10;0.10;;;;;;;;;;5008495;28;20042;-89
2022/03/08 00:12:27;;;;;;;0.10;0.10;;;;;;;;;;4992463;28;20046;-89
2022/03/08 00:14:53;;;;;;;0.10;0.10;;;;;;;;;;5008402;28;20104;-89
2022/03/08 00:17:19;;;;;;;0.10;0.10;;;;;;;;;;4991679;28;20062;-89
2022/03/08 00:19:45;;;;;;;0.10;0.10;;;;;;;;;;5008132;28;20044;-88
2022/03/08 00:22:10;;;;;;;0.10;0.10;;;;;;;;;;4991641;28;20049;-88
2022/03/08 00:24:36;;;;;;;0.10;0.10;;;;;;;;;;5008244;28;20074;-88
2022/03/08 00:27:02;;;;;;;0.10;0.10;;;;;;;;;;5008108;28;20042;-89
2022/03/08 00:29:29;;;;;;;0.10;0.10;;;;;;;;;;5009167;28;20133;-87
2022/03/08 00:31:55;;;;;;;0.93;0.43;;;;;;;;;;5012651;28;20046;-87
2022/03/08 00:34:21;;;;;;;0.10;0.10;;;;;;;;;;4979934;28;20057;-88
2022/03/08 00:36:47;;;;;;;0.10;0.10;;;;;;;;;;5012035;28;20534;-88
2022/03/08 00:39:13;;;;;;;0.10;0.10;;;;;;;;;;4995846;28;20066;-88
2022/03/08 00:41:39;;;;;;;0.10;0.10;;;;;;;;;;5012075;28;20049;-88
2022/03/08 00:44:05;;;;;;;0.10;0.10;;;;;;;;;;5011838;28;20049;-89
2022/03/08 00:46:31;;;;;;;0.10;0.10;;;;;;;;;;5011735;28;20046;-88
2022/03/08 00:48:58;;;;;;;0.10;0.10;;;;;;;;;;4995341;28;20575;-89
2022/03/08 00:51:24;;;;;;;0.10;0.10;;;;;;;;;;5011928;28;20049;-88
2022/03/08 00:53:50;;;;;;;0.10;0.10;;;;;;;;;;5011707;28;20045;-88
2022/03/08 00:56:16;;;;;;;0.10;0.10;;;;;;;;;;4995383;28;20046;-88
2022/03/08 00:58:42;;;;;;;0.00;0.00;;;;;;;;;;4994974;28;20497;-88
2022/03/08 01:01:08;;;;;;;0.10;0.10;;;;;;;;;;5011430;28;20081;-89
2022/03/08 01:03:34;;;;;;;0.10;0.10;;;;;;;;;;4995040;28;20093;-88
2022/03/08 01:06:00;;;;;;;0.10;0.10;;;;;;;;;;5011494;28;20035;-88
2022/03/08 01:08:26;;;;;;;0.10;0.10;;;;;;;;;;4995261;28;20064;-89
2022/03/08 01:10:52;;;;;;;0.10;0.10;;;;;;;;;;5011427;28;20038;-88
2022/03/08 01:13:18;;;;;;;0.10;0.10;;;;;;;;;;4994925;28;20042;-89
2022/03/08 01:15:44;;;;;;;0.10;0.10;;;;;;;;;;4995056;28;20394;-88
2022/03/08 01:18:11;;;;;;;0.10;0.10;;;;;;;;;;4994626;28;20093;-88
2022/03/08 01:20:37;;;;;;;0.10;0.10;;;;;;;;;;4994751;28;20046;-87
2022/03/08 01:23:03;;;;;;;0.10;0.10;;;;;;;;;;5011446;28;20400;-88
2022/03/08 01:25:29;;;;;;;0.10;0.10;;;;;;;;;;4994575;28;20053;-89
2022/03/08 01:27:55;;;;;;;0.10;0.10;;;;;;;;;;5011008;28;20486;-88
2022/03/08 01:30:21;;;;;;;0.05;0.05;;;;;;;;;;4994543;28;20042;-88
2022/03/08 01:32:48;;;;;;;0.10;0.10;;;;;;;;;;4994410;28;20122;-87
2022/03/08 01:35:14;;;;;;;0.10;0.10;;;;;;;;;;5010765;28;20048;-88
2022/03/08 01:37:40;;;;;;;0.10;0.10;;;;;;;;;;4977989;28;20042;-86
2022/03/08 01:40:06;;;;;;;0.10;0.10;;;;;;;;;;5010574;28;20050;-88
2022/03/08 01:42:32;;;;;;;0.10;0.10;;;;;;;;;;5010585;28;20121;-87
2022/03/08 01:44:58;;;;;;;0.20;0.20;;;;;;;;;;5010645;28;20073;-88
2022/03/08 01:47:24;;;;;;;0.10;0.10;;;;;;;;;;4994010;28;20058;-88
2022/03/08 01:49:50;;;;;;;0.10;0.10;;;;;;;;;;4978126;28;20046;-88
2022/03/08 01:52:17;;;;;;;0.10;0.10;;;;;;;;;;5010599;28;20046;-88
2022/03/08 01:54:44;;;;;;;0.10;0.10;;;;;;;;;;5010520;28;20049;-89
2022/03/08 01:57:10;;;;;;;0.10;0.10;;;;;;;;;;5010398;28;20042;-89
2022/03/08 01:59:36;;;;;;;0.10;0.10;;;;;;;;;;4994452;28;20043;-89
2022/03/08 02:02:03;;;;;;;0.10;0.10;;;;;;;;;;4993849;28;20073;-89
2022/03/08 02:04:28;;;;;;;0.10;0.10;;;;;;;;;;5010304;28;20046;-89
2022/03/08 02:06:54;;;;;;;0.10;0.10;;;;;;;;;;5010233;28;20049;-89
2022/03/08 02:09:20;;;;;;;0.10;0.10;;;;;;;;;;5010111;28;20433;-88
2022/03/08 02:11:46;;;;;;;0.10;0.10;;;;;;;;;;5010132;28;20399;-88
2022/03/08 02:14:13;;;;;;;0.10;0.10;;;;;;;;;;4993715;28;20042;-88
2022/03/08 02:16:39;;;;;;;0.10;0.10;;;;;;;;;;5009753;28;20050;-89
2022/03/08 02:19:05;;;;;;;0.10;0.10;;;;;;;;;;4993828;28;20467;-89
2022/03/08 02:21:35;;;;;;;0.10;0.10;;;;;;;;;;4993867;28;20042;-89
2022/03/08 02:24:01;;;;;;;0.10;0.10;;;;;;;;;;5010157;28;20117;-89
2022/03/08 02:26:27;;;;;;;0.10;0.10;;;;;;;;;;5009979;28;20129;-89
2022/03/08 02:28:53;;;;;;;0.10;0.10;;;;;;;;;;4977101;28;20048;-89
2022/03/08 02:31:19;;;;;;;0.10;0.10;;;;;;;;;;4977566;28;20042;-89
2022/03/08 02:33:45;;;;;;;0.10;0.10;;;;;;;;;;5009934;28;20042;-89
2022/03/08 02:36:11;;;;;;;0.10;0.10;;;;;;;;;;4993621;28;20441;-89
2022/03/08 02:38:37;;;;;;;0.10;0.10;;;;;;;;;;5009587;28;20504;-89
2022/03/08 02:41:03;;;;;;;0.10;0.10;;;;;;;;;;5009738;28;20084;-89
2022/03/08 02:43:29;;;;;;;0.10;0.10;;;;;;;;;;5009864;28;20042;-89
2022/03/08 02:45:55;;;;;;;0.10;0.10;;;;;;;;;;4993145;28;20045;-89
2022/03/08 02:48:21;;;;;;;0.10;0.10;;;;;;;;;;5009495;28;20190;-89
2022/03/08 02:50:47;;;;;;;0.10;0.10;;;;;;;;;;5009619;28;20137;-89
2022/03/08 02:53:13;;;;;;;0.10;0.10;;;;;;;;;;4992659;28;20068;-89
2022/03/08 02:55:38;;;;;;;0.10;0.10;;;;;;;;;;4993162;28;20038;-90
2022/03/08 02:58:05;;;;;;;0.10;0.10;;;;;;;;;;4993174;28;20153;-90
2022/03/08 03:00:31;;;;;;;0.10;0.10;;;;;;;;;;4993214;28;20129;-89
2022/03/08 03:02:57;;;;;;;0.10;0.10;;;;;;;;;;4992941;28;20046;-89
2022/03/08 03:05:23;;;;;;;0.10;0.10;;;;;;;;;;5009175;28;20038;-89
2022/03/08 03:07:49;;;;;;;0.10;0.10;;;;;;;;;;5009233;28;20132;-89
2022/03/08 03:10:16;;;;;;;0.10;0.10;;;;;;;;;;4993144;28;20042;-88
2022/03/08 03:12:42;;;;;;;0.10;0.10;;;;;;;;;;5009257;28;20042;-89
2022/03/08 03:15:09;;;;;;;0.10;0.10;;;;;;;;;;4992620;28;20049;-89
2022/03/08 03:17:35;;;;;;;0.10;0.10;;;;;;;;;;4992707;28;20046;-89
2022/03/08 03:20:01;;;;;;;0.10;0.10;;;;;;;;;;5009082;28;20111;-88
2022/03/08 03:22:27;;;;;;;0.10;0.10;;;;;;;;;;5009026;28;20038;-88
2022/03/08 03:24:53;;;;;;;0.10;0.10;;;;;;;;;;5008767;28;20041;-88
2022/03/08 03:27:19;;;;;;;0.10;0.10;;;;;;;;;;5009007;28;20046;-89
2022/03/08 03:29:45;;;;;;;0.10;0.10;;;;;;;;;;4992393;28;20486;-88
2022/03/08 03:32:11;;;;;;;0.10;0.10;;;;;;;;;;5009116;28;20046;-89
2022/03/08 03:34:37;;;;;;;0.10;0.10;;;;;;;;;;5008908;28;20078;-88
2022/03/08 03:37:03;;;;;;;0.10;0.10;;;;;;;;;;5008752;28;20046;-89
2022/03/08 03:39:28;;;;;;;0.10;0.10;;;;;;;;;;4992338;28;20038;-89
2022/03/08 03:41:54;;;;;;;0.10;0.10;;;;;;;;;;4992192;28;20034;-89
2022/03/08 03:44:20;;;;;;;0.10;0.10;;;;;;;;;;5008517;28;20398;-89
2022/03/08 03:46:46;;;;;;;0.10;0.10;;;;;;;;;;5008343;28;20058;-89
2022/03/08 03:49:12;;;;;;;0.10;0.10;;;;;;;;;;5008911;28;20039;-89
2022/03/08 03:51:38;;;;;;;0.10;0.10;;;;;;;;;;4992178;28;20038;-89
2022/03/08 03:54:04;;;;;;;0.10;0.10;;;;;;;;;;4976061;28;20049;-88
2022/03/08 03:56:30;;;;;;;0.10;0.10;;;;;;;;;;5008490;28;20042;-89
2022/03/08 03:58:56;;;;;;;0.10;0.10;;;;;;;;;;5008278;28;20046;-88
2022/03/08 04:01:22;;;;;;;0.10;0.10;;;;;;;;;;5008136;28;20506;-88
2022/03/08 04:03:48;;;;;;;0.10;0.10;;;;;;;;;;5007240;28;20449;-88
2022/03/08 04:06:14;;;;;;;0.10;0.10;;;;;;;;;;5008019;28;20089;-88
2022/03/08 04:08:40;;;;;;;0.10;0.10;;;;;;;;;;5008464;28;20038;-89
2022/03/08 04:11:06;;;;;;;0.10;0.10;;;;;;;;;;4991985;28;20042;-90
2022/03/08 04:13:32;;;;;;;0.10;0.10;;;;;;;;;;5008248;28;20065;-90
2022/03/08 04:15:58;;;;;;;0.10;0.10;;;;;;;;;;4992015;28;20038;-89
2022/03/08 04:18:24;;;;;;;0.10;0.10;;;;;;;;;;4991931;28;20101;-90
2022/03/08 04:20:50;;;;;;;0.10;0.10;;;;;;;;;;4992021;28;20046;-90
2022/03/08 04:23:16;;;;;;;0.10;0.10;;;;;;;;;;5008196;28;20125;-89
2022/03/08 04:25:42;;;;;;;0.10;0.10;;;;;;;;;;4991623;28;20045;-90
2022/03/08 04:28:08;;;;;;;0.10;0.10;;;;;;;;;;5008254;28;20038;-89
2022/03/08 04:30:34;;;;;;;0.10;0.10;;;;;;;;;;5008247;28;20045;-88
2022/03/08 04:33:00;;;;;;;0.10;0.10;;;;;;;;;;4991662;28;20053;-89
2022/03/08 04:35:26;;;;;;;0.10;0.10;;;;;;;;;;5007782;28;20069;-88
2022/03/08 04:37:52;;;;;;;0.10;0.10;;;;;;;;;;4991572;28;20077;-88
2022/03/08 04:40:18;;;;;;;0.10;0.10;;;;;;;;;;4975225;28;20038;-88
2022/03/08 04:42:44;;;;;;;0.10;0.10;;;;;;;;;;5007856;28;20041;-88
2022/03/08 04:45:10;;;;;;;0.10;0.10;;;;;;;;;;5008144;28;20332;-89
2022/03/08 04:47:37;;;;;;;0.10;0.10;;;;;;;;;;5008215;28;20375;-90
2022/03/08 04:50:09;;;;;;;0.10;0.10;;;;;;;;;;4991612;28;20046;-89
2022/03/08 04:52:35;;;;;;;0.10;0.10;;;;;;;;;;4991939;28;20050;-89
2022/03/08 04:55:03;;;;;;;0.10;0.10;;;;;;;;;;5007617;28;20042;-89
2022/03/08 04:57:29;;;;;;;0.10;0.10;;;;;;;;;;5007824;28;20050;-89
2022/03/08 04:59:54;;;;;;;0.10;0.10;;;;;;;;;;4975434;28;20367;-89
2022/03/08 05:02:20;;;;;;;0.10;0.10;;;;;;;;;;4991416;28;20375;-89
2022/03/08 05:04:46;;;;;;;0.10;0.10;;;;;;;;;;5008052;28;20034;-89
2022/03/08 05:07:12;;;;;;;0.10;0.10;;;;;;;;;;4991525;28;20524;-90
2022/03/08 05:09:38;;;;;;;0.10;0.10;;;;;;;;;;5008089;28;20513;-90
2022/03/08 05:12:04;;;;;;;0.10;0.10;;;;;;;;;;4991612;28;20494;-90
2022/03/08 05:14:31;;;;;;;0.10;0.10;;;;;;;;;;5008106;28;20039;-90
2022/03/08 05:16:57;;;;;;;0.10;0.10;;;;;;;;;;5011021;28;20058;-89
2022/03/08 05:19:23;;;;;;;0.03;0.03;;;;;;;;;;4995063;28;20041;-89
2022/03/08 05:21:49;;;;;;;0.10;0.10;;;;;;;;;;4995016;28;20048;-89
2022/03/08 05:24:15;;;;;;;0.10;0.10;;;;;;;;;;4995147;28;20684;-89
2022/03/08 05:26:41;;;;;;;0.10;0.10;;;;;;;;;;4994769;28;20494;-88
2022/03/08 05:29:07;;;;;;;0.10;0.10;;;;;;;;;;4995066;28;20046;-89
2022/03/08 05:31:33;;;;;;;0.20;0.20;;;;;;;;;;4978432;28;20038;-89
2022/03/08 05:33:59;;;;;;;0.10;0.10;;;;;;;;;;4996051;28;20045;-93
2022/03/08 05:36:31;;;;;;;0.10;0.10;;;;;;;;;;4999055;28;20042;-89
2022/03/08 05:38:57;;;;;;;0.10;0.10;;;;;;;;;;4994560;28;20485;-89
2022/03/08 05:41:23;;;;;;;0.10;0.10;;;;;;;;;;4994731;28;20161;-89
2022/03/08 05:43:49;;;;;;;0.10;0.10;;;;;;;;;;4994533;28;20490;-89
2022/03/08 05:46:15;;;;;;;0.10;0.10;;;;;;;;;;4994225;28;20102;-89
2022/03/08 05:48:41;;;;;;;0.10;0.10;;;;;;;;;;4994560;28;20050;-89
2022/03/08 05:51:07;;;;;;;0.10;0.10;;;;;;;;;;4994513;28;20145;-89
2022/03/08 05:53:33;;;;;;;0.05;0.05;;;;;;;;;;5010465;28;20477;-89
2022/03/08 05:55:59;;;;;;;0.10;0.10;;;;;;;;;;4979008;28;20038;-92
2022/03/08 05:58:25;;;;;;;0.10;0.10;;;;;;;;;;4994380;28;20077;-89
2022/03/08 06:00:51;;;;;;;0.10;0.10;;;;;;;;;;5010616;28;20081;-89
2022/03/08 06:03:17;;;;;;;0.10;0.10;;;;;;;;;;5010579;28;20078;-89
2022/03/08 06:05:43;;;;;;;0.10;0.10;;;;;;;;;;4994517;28;20035;-89
2022/03/08 06:08:09;;;;;;;0.10;0.10;;;;;;;;;;4993933;28;20130;-88
2022/03/08 06:10:35;;;;;;;0.00;0.00;;;;;;;;;;4993896;28;20341;-89
2022/03/08 06:13:01;;;;;;;0.10;0.10;;;;;;;;;;4977786;28;20038;-88
2022/03/08 06:15:27;;;;;;;0.10;0.10;;;;;;;;;;4993862;28;20108;-89
2022/03/08 06:17:53;;;;;;;0.10;0.10;;;;;;;;;;5010139;28;20046;-89
2022/03/08 06:20:19;;;;;;;0.10;0.10;;;;;;;;;;5009811;28;20117;-88
2022/03/08 06:22:45;;;;;;;0.10;0.10;;;;;;;;;;5010135;28;20040;-88
2022/03/08 06:25:11;;;;;;;0.10;0.10;;;;;;;;;;5009999;28;20045;-88
2022/03/08 06:27:37;;;;;;;0.10;0.10;;;;;;;;;;4976572;28;20042;-89
2022/03/08 06:30:03;;;;;;;0.10;0.10;;;;;;;;;;4993827;28;20039;-89
2022/03/08 06:32:29;;;;;;;0.10;0.10;;;;;;;;;;5010265;28;20078;-89
2022/03/08 06:34:55;;;;;;;0.10;0.10;;;;;;;;;;5009475;28;20061;-88
2022/03/08 06:37:21;;;;;;;0.10;0.10;;;;;;;;;;5009566;28;20105;-87
2022/03/08 06:39:47;;;;;;;0.10;0.10;;;;;;;;;;5009522;28;20077;-87
2022/03/08 06:42:13;;;;;;;0.10;0.10;;;;;;;;;;4993305;28;20490;-88
2022/03/08 06:44:39;;;;;;;0.10;0.10;;;;;;;;;;5009429;28;20045;-88
2022/03/08 06:47:08;;;;;;;0.10;0.10;;;;;;;;;;5009278;28;20054;-88
2022/03/08 06:49:35;;;;;;;0.10;0.10;;;;;;;;;;5009506;28;20046;-88
2022/03/08 06:52:01;;;;;;;0.55;0.55;;;;;;;;;;4993128;28;20108;-88
2022/03/08 06:54:27;;;;;;;0.10;0.10;;;;;;;;;;5009440;28;20124;-88
2022/03/08 06:56:53;;;;;;;0.10;0.10;;;;;;;;;;4993070;28;20093;-88
2022/03/08 06:59:19;;;;;;;0.10;0.10;;;;;;;;;;5009285;28;20042;-87
2022/03/08 07:01:45;;;;;;;0.10;0.10;;;;;;;;;;5009232;28;20042;-88
2022/03/08 07:04:11;;;;;;;0.45;0.45;;;;;;;;;;4992688;28;20496;-88
2022/03/08 07:06:37;;;;;;;0.10;0.10;;;;;;;;;;4992953;28;20049;-88
2022/03/08 07:09:03;;;;;;;0.10;0.10;;;;;;;;;;4992755;28;20081;-88
2022/03/08 07:11:29;;;;;;;0.10;0.10;;;;;;;;;;5009065;28;20074;-88
2022/03/08 07:13:55;;;;;;;0.10;0.10;;;;;;;;;;5009057;28;20038;-89
2022/03/08 07:16:21;;;;;;;0.10;0.10;;;;;;;;;;4976294;28;20048;-87
2022/03/08 07:18:47;;;;;;;0.10;0.10;;;;;;;;;;4992546;28;20046;-87
2022/03/08 07:21:13;;;;;;;0.10;0.10;;;;;;;;;;5009014;28;20046;-87
2022/03/08 07:23:39;;;;;;;0.43;0.43;;;;;;;;;;4976535;28;20034;-87
2022/03/08 07:26:05;;;;;;;0.10;0.10;;;;;;;;;;4992166;28;20073;-86
2022/03/08 07:28:31;;;;;;;0.10;0.10;;;;;;;;;;5008620;28;20074;-87
2022/03/08 07:30:57;;;;;;;0.10;0.10;;;;;;;;;;5008657;28;20465;-88
2022/03/08 07:33:23;;;;;;;0.10;0.10;;;;;;;;;;4992041;28;20073;-87
2022/03/08 07:35:49;;;;;;;0.20;0.20;;;;;;;;;;5008525;28;20038;-88
2022/03/08 07:38:16;;;;;;;0.10;0.10;;;;;;;;;;4991977;28;20486;-86
2022/03/08 07:40:42;;;;;;;0.10;0.10;;;;;;;;;;4975917;28;20540;-88
2022/03/08 07:43:08;;;;;;;0.10;0.10;;;;;;;;;;4992015;28;20038;-88
2022/03/08 07:45:35;;;;;;;0.20;0.20;;;;;;;;;;5008395;28;20041;-87
2022/03/08 07:48:01;;;;;;;0.10;0.10;;;;;;;;;;4991748;28;20206;-87
2022/03/08 07:50:27;;;;;;;0.10;0.10;;;;;;;;;;5008243;28;20046;-87
2022/03/08 07:52:54;;;;;;;0.20;0.20;;;;;;;;;;4991903;28;20047;-86
2022/03/08 07:55:20;;;;;;;0.10;0.10;;;;;;;;;;4975622;28;20042;-85
2022/03/08 07:57:46;;;;;;;0.10;0.10;;;;;;;;;;5008258;28;20046;-87
2022/03/08 08:00:12;;;;;;;0.10;0.10;;;;;;;;;;4991768;28;20502;-87
2022/03/08 08:02:38;;;;;;;0.10;0.10;;;;;;;;;;4991935;28;20116;-86
2022/03/08 08:05:05;;;;;;;0.10;0.10;;;;;;;;;;5008001;28;20041;-87
2022/03/08 08:07:30;;;;;;;0.60;0.20;;;;;;;;;;4991720;28;20045;-86
2022/03/08 08:09:56;;;;;;;0.10;0.10;;;;;;;;;;5008088;28;20042;-87
2022/03/08 08:12:22;;;;;;;0.20;0.20;;;;;;;;;;4991584;28;20097;-87
2022/03/08 08:14:48;;;;;;;0.10;0.10;;;;;;;;;;5007900;28;20486;-87
2022/03/08 08:17:14;;;;;;;0.10;0.10;;;;;;;;;;4991232;28;20049;-87
2022/03/08 08:19:40;;;;;;;0.30;0.30;;;;;;;;;;4991337;28;20482;-92
2022/03/08 08:22:06;;;;;;;0.38;0.38;;;;;;;;;;4991526;28;20041;-88
2022/03/08 08:24:32;;;;;;;0.10;0.10;;;;;;;;;;5007734;28;20035;-87
2022/03/08 08:26:58;;;;;;;0.10;0.10;;;;;;;;;;4991437;28;20069;-87
2022/03/08 08:29:24;;;;;;;0.10;0.10;;;;;;;;;;4991267;28;20049;-87
2022/03/08 08:31:50;;;;;;;0.10;0.10;;;;;;;;;;4991630;28;20039;-88
2022/03/08 08:34:16;;;;;;;0.10;0.10;;;;;;;;;;4991204;28;20065;-87
2022/03/08 08:36:46;;;;;;;0.10;0.10;;;;;;;;;;4991352;28;20124;-88
2022/03/08 08:39:14;;;;;;;0.10;0.10;;;;;;;;;;5007814;28;20401;-89
2022/03/08 08:41:40;;;;;;;0.50;0.50;;;;;;;;;;4991144;28;20052;-88
2022/03/08 08:44:06;;;;;;;0.10;0.10;;;;;;;;;;4991404;28;20111;-89
2022/03/08 08:46:32;;;;;;;0.10;0.10;;;;;;;;;;5007651;28;20046;-87
2022/03/08 08:48:58;;;;;;;0.10;0.10;;;;;;;;;;5007586;28;20043;-87
2022/03/08 08:51:24;;;;;;;0.15;0.15;;;;;;;;;;4994292;28;20490;-87
2022/03/08 08:53:50;;;;;;;0.10;0.10;;;;;;;;;;4995356;28;20109;-86
2022/03/08 08:56:16;;;;;;;0.15;0.15;;;;;;;;;;4995356;28;20046;-87
2022/03/08 08:58:42;;;;;;;0.20;0.20;;;;;;;;;;4994883;28;20042;-87
2022/03/08 09:01:11;;;;;;;0.20;0.20;;;;;;;;;;4995066;28;20034;-86
2022/03/08 09:03:36;;;;;;;0.30;0.30;;;;;;;;;;4994977;28;20042;-87
2022/03/08 09:06:02;;;;;;;0.10;0.10;;;;;;;;;;5011312;28;20035;-86
2022/03/08 09:08:28;;;;;;;0.10;0.10;;;;;;;;;;5011364;28;20109;-87
2022/03/08 09:10:54;;;;;;;0.10;0.10;;;;;;;;;;4994799;28;20070;-86
2022/03/08 09:13:24;;;;;;;0.10;0.10;;;;;;;;;;4995050;28;20445;-87
2022/03/08 09:15:50;;;;;;;0.20;0.20;;;;;;;;;;5010937;28;20533;-87
2022/03/08 09:18:16;;;;;;;2.17;0.73;;;;;;;;;;4994602;28;20258;-87
2022/03/08 09:20:42;;;;;;;0.10;0.10;;;;;;;;;;5011193;28;20042;-87
2022/03/08 09:23:08;;;;;;;0.20;0.20;;;;;;;;;;5010851;28;20035;-86
2022/03/08 09:25:35;;;;;;;3.20;0.65;;;;;;;;;;4994429;28;20482;-87
2022/03/08 09:28:05;;;;;;;0.20;0.20;;;;;;;;;;5011075;28;20077;-86
2022/03/08 09:30:31;;;;;;;2.30;1.20;;;;;;;;;;5010783;28;20568;-88
2022/03/08 09:32:58;;;;;;;0.20;0.20;;;;;;;;;;5010709;28;20081;-87
2022/03/08 09:35:24;;;;;;;0.40;0.32;;;;;;;;;;4994714;28;20397;-88
2022/03/08 09:37:50;;;;;;;0.20;0.20;;;;;;;;;;4994310;28;20049;-89
2022/03/08 09:40:16;;;;;;;0.10;0.10;;;;;;;;;;4994377;28;20034;-86
2022/03/08 09:42:42;;;;;;;0.17;0.13;;;;;;;;;;4994235;28;20069;-86
2022/03/08 09:45:08;;;;;;;0.50;0.50;;;;;;;;;;4978196;28;20035;-88
2022/03/08 09:47:34;;;;;;;0.20;0.20;;;;;;;;;;4994071;28;20062;-88
2022/03/08 09:50:00;;;;;;;0.13;0.13;;;;;;;;;;4994060;28;20108;-89
2022/03/08 09:52:26;;;;;;;1.95;0.30;;;;;;;;;;4994245;28;20556;-87
2022/03/08 09:54:52;;;;;;;1.48;0.40;;;;;;;;;;5010362;28;20042;-87
2022/03/08 09:57:22;;;;;;;0.28;0.28;;;;;;;;;;4993913;28;20060;-86
2022/03/08 09:59:48;;;;;;;0.20;0.20;;;;;;;;;;4994192;28;20038;-86
2022/03/08 10:02:14;;;;;;;0.40;0.40;;;;;;;;;;4992831;28;20049;-88
2022/03/08 10:04:40;;;;;;;0.20;0.20;;;;;;;;;;5010194;28;20486;-87
2022/03/08 10:07:12;;;;;;;0.20;0.20;;;;;;;;;;5010132;28;20088;-86
2022/03/08 10:09:38;;;;;;;;;;;;;;;;;;4994242;28;20556;-87
2022/03/08 10:12:13;;;;;;;0.10;0.10;;;;;;;;;;4993825;28;19925;-86
2022/03/08 10:14:40;;;;;;;0.20;0.20;;;;;;;;;;4993948;28;20048;-86
2022/03/08 10:17:06;;;;;;;0.10;0.10;;;;;;;;;;4993694;28;20437;-87
2022/03/08 10:19:43;;;;;;;0.20;0.20;;;;;;;;;;4993708;28;20049;-86
2022/03/08 10:22:09;;;;;;;0.10;0.10;;;;;;;;;;4993804;28;20046;-91
2022/03/08 10:24:37;;;;;;;0.20;0.20;;;;;;;;;;5009807;28;20089;-87
2022/03/08 10:27:06;;;;;;;0.10;0.10;;;;;;;;;;5010355;28;20117;-85
2022/03/08 10:29:36;;;;;;;0.35;0.32;;;;;;;;;;4993685;28;20445;-85
2022/03/08 10:32:16;;;;;;;0.30;0.30;;;;;;;;;;5009686;28;20065;-85
2022/03/08 10:34:42;;;;;;;0.10;0.10;;;;;;;;;;4993341;28;20035;-85
2022/03/08 10:37:17;;;;;;;0.10;0.10;;;;;;;;;;5009372;28;20104;-85
2022/03/08 10:39:49;;;;;;;0.20;0.20;;;;;;;;;;4993582;28;20050;-87
2022/03/08 10:42:19;;;;;;;0.20;0.20;;;;;;;;;;4993256;28;20042;-87
2022/03/08 10:44:45;;;;;;;0.10;0.10;;;;;;;;;;4992946;28;20039;-86
2022/03/08 10:47:12;;;;;;;0.20;0.20;;;;;;;;;;4992904;28;20524;-86
2022/03/08 10:49:48;;;;;;;0.10;0.10;;;;;;;;;;4993151;28;20525;-86
2022/03/08 10:52:14;;;;;;;0.10;0.10;;;;;;;;;;4993059;28;20418;-86
2022/03/08 10:54:40;;;;;;;0.10;0.10;;;;;;;;;;5009239;28;20043;-86
2022/03/08 10:57:06;;;;;;;0.15;0.15;;;;;;;;;;4992901;28;20130;-87
2022/03/08 10:59:32;;;;;;;0.10;0.10;;;;;;;;;;5009123;28;20485;-87
2022/03/08 11:01:58;;;;;;;0.15;0.15;;;;;;;;;;4993058;28;20096;-87
2022/03/08 11:04:24;;;;;;;0.17;0.17;;;;;;;;;;4976525;28;20034;-86
2022/03/08 11:06:52;;;;;;;0.10;0.10;;;;;;;;;;5009152;28;20112;-86
2022/03/08 11:09:18;;;;;;;0.20;0.20;;;;;;;;;;5009126;28;20042;-85
2022/03/08 11:11:44;;;;;;;0.32;0.30;;;;;;;;;;4992623;28;20034;-87
2022/03/08 11:14:11;;;;;;;0.10;0.10;;;;;;;;;;5008602;28;20082;-87
2022/03/08 11:16:37;;;;;;;0.17;0.17;;;;;;;;;;5008908;28;20306;-87
2022/03/08 11:19:05;;;;;;;0.15;0.15;;;;;;;;;;5008895;28;20133;-86
2022/03/08 11:21:31;;;;;;;0.10;0.10;;;;;;;;;;4993002;28;20038;-89
2022/03/08 11:23:57;;;;;;;0.20;0.20;;;;;;;;;;4992450;28;20401;-90
2022/03/08 11:26:23;;;;;;;0.20;0.20;;;;;;;;;;4992429;28;20034;-87
2022/03/08 11:28:49;;;;;;;0.10;0.10;;;;;;;;;;5008634;28;20042;-87
2022/03/08 11:31:19;;;;;;;0.30;0.30;;;;;;;;;;4992407;28;20054;-85
2022/03/08 11:33:59;;;;;;;0.30;0.30;;;;;;;;;;5008589;28;20049;-86
2022/03/08 11:36:33;;;;;;;0.20;0.20;;;;;;;;;;4976216;28;20409;-84
2022/03/08 11:39:18;;;;;;;0.30;0.30;;;;;;;;;;5008564;28;20069;-86
2022/03/08 11:41:45;;;;;;;0.40;0.40;;;;;;;;;;4976222;28;20045;-87
2022/03/08 11:44:31;;;;;;;0.20;0.20;;;;;;;;;;4992194;28;20034;-87
2022/03/08 11:47:07;;;;;;;0.57;0.57;;;;;;;;;;5008573;28;20407;-87
2022/03/08 11:49:40;;;;;;;0.10;0.10;;;;;;;;;;4975848;28;20049;-88
2022/03/08 11:52:19;;;;;;;0.10;0.10;;;;;;;;;;4992031;28;20074;-88
2022/03/08 11:54:52;;;;;;;0.20;0.20;;;;;;;;;;5008204;28;20482;-87
2022/03/08 11:57:38;;;;;;;0.20;0.20;;;;;;;;;;5008291;28;20042;-87
2022/03/08 12:00:22;;;;;;;0.10;0.10;;;;;;;;;;4993585;28;20042;-88
2022/03/08 12:02:52;;;;;;;0.10;0.10;;;;;;;;;;4973955;28;20386;-88
2022/03/08 12:05:37;;;;;;;0.10;0.10;;;;;;;;;;4976319;28;20044;-88
2022/03/08 12:08:22;;;;;;;0.20;0.20;;;;;;;;;;4991580;28;20096;-87
2022/03/08 12:10:48;;;;;;;0.10;0.10;;;;;;;;;;5007865;28;20438;-88
2022/03/08 12:13:15;;;;;;;0.40;0.40;;;;;;;;;;4975540;28;20508;-87
2022/03/08 12:15:59;;;;;;;0.10;0.10;;;;;;;;;;4975388;28;20046;-88
2022/03/08 12:18:35;;;;;;;0.10;0.10;;;;;;;;;;4999329;28;20104;-88
2022/03/08 12:21:16;;;;;;;0.65;0.30;;;;;;;;;;4978956;28;20034;-88
2022/03/08 12:23:48;;;;;;;0.25;0.25;;;;;;;;;;5011171;28;20041;-87
2022/03/08 12:26:27;;;;;;;0.10;0.10;;;;;;;;;;5010517;28;20072;-87
2022/03/08 12:29:10;;;;;;;0.20;0.20;;;;;;;;;;4995141;28;20125;-87
2022/03/08 12:31:36;;;;;;;;;;;;;;;;;;4995366;28;20338;-88
2022/03/08 12:34:02;;;;;;;0.10;0.10;;;;;;;;;;5011214;28;20064;-87
2022/03/08 12:36:28;;;;;;;0.10;0.10;;;;;;;;;;4994960;28;20044;-86
2022/03/08 12:38:54;;;;;;;0.10;0.10;;;;;;;;;;4994678;28;20048;-88
2022/03/08 12:41:26;;;;;;;0.20;0.20;;;;;;;;;;5010950;28;20034;-87
2022/03/08 12:43:59;;;;;;;0.20;0.20;;;;;;;;;;4995076;28;20042;-88
2022/03/08 12:46:25;;;;;;;0.10;0.10;;;;;;;;;;4994599;28;20037;-88
2022/03/08 12:48:54;;;;;;;0.20;0.20;;;;;;;;;;5010844;28;20053;-88
2022/03/08 12:51:23;;;;;;;0.52;0.52;;;;;;;;;;4994727;28;20100;-88
2022/03/08 12:53:57;;;;;;;0.10;0.10;;;;;;;;;;5010831;28;20045;-88
2022/03/08 12:56:23;;;;;;;0.10;0.10;;;;;;;;;;4994747;28;20541;-88
2022/03/08 12:58:49;;;;;;;0.28;0.28;;;;;;;;;;4994825;28;20137;-88
2022/03/08 13:01:15;;;;;;;0.10;0.10;;;;;;;;;;5011081;28;20450;-88
2022/03/08 13:03:47;;;;;;;0.20;0.20;;;;;;;;;;4978684;28;20414;-90
2022/03/08 13:06:13;;;;;;;0.10;0.10;;;;;;;;;;4994686;28;20038;-88
2022/03/08 13:08:40;;;;;;;0.10;0.10;;;;;;;;;;4978388;28;20493;-89
2022/03/08 13:11:07;;;;;;;0.10;0.10;;;;;;;;;;4994835;28;20091;-89
2022/03/08 13:13:33;;;;;;;0.10;0.10;;;;;;;;;;4994771;28;20049;-89
2022/03/08 13:15:59;;;;;;;0.22;0.22;;;;;;;;;;4994528;28;20065;-90
2022/03/08 13:18:26;;;;;;;0.10;0.10;;;;;;;;;;5010774;28;20128;-89
2022/03/08 13:20:56;;;;;;;0.10;0.10;;;;;;;;;;5010547;28;20038;-89
2022/03/08 13:23:25;;;;;;;0.35;0.35;;;;;;;;;;4978255;28;20034;-88
2022/03/08 13:25:52;;;;;;;0.10;0.10;;;;;;;;;;4978195;28;20042;-89
2022/03/08 13:28:19;;;;;;;0.10;0.10;;;;;;;;;;4974377;28;20074;-89
2022/03/08 13:30:45;;;;;;;0.10;0.10;;;;;;;;;;5009115;28;20477;-88
2022/03/08 13:33:17;;;;;;;0.20;0.20;;;;;;;;;;5007811;28;20046;-89
2022/03/08 13:36:10;;;;;;;0.30;0.30;;;;;;;;;;5010449;28;20052;-89
2022/03/08 13:38:41;;;;;;;0.20;0.20;;;;;;;;;;5010822;28;20072;-89
2022/03/08 13:41:08;;;;;;;0.10;0.10;;;;;;;;;;4995056;28;20465;-89
2022/03/08 13:43:34;;;;;;;0.10;0.10;;;;;;;;;;4978521;28;20069;-88
2022/03/08 13:46:01;;;;;;;0.15;0.15;;;;;;;;;;4978520;28;20030;-88
2022/03/08 13:48:28;;;;;;;0.10;0.10;;;;;;;;;;4978581;28;20062;-90
2022/03/08 13:50:54;;;;;;;0.20;0.20;;;;;;;;;;4963173;28;20047;-88
2022/03/08 13:53:21;;;;;;;0.10;0.10;;;;;;;;;;4962284;28;20043;-88
2022/03/08 13:55:47;;;;;;;0.28;0.28;;;;;;;;;;4978047;28;20525;-88
2022/03/08 13:58:17;;;;;;;0.10;0.10;;;;;;;;;;4977921;28;20092;-88
2022/03/08 14:00:43;;;;;;;0.20;0.20;;;;;;;;;;4961588;28;20169;-89
2022/03/08 14:03:11;;;;;;;0.40;0.40;;;;;;;;;;4978669;28;20128;-90
2022/03/08 14:06:10;;;;;;;0.20;0.20;;;;;;;;;;4962344;28;20080;-90
2022/03/08 14:08:36;;;;;;;0.20;0.20;;;;;;;;;;4960986;28;20520;-90
2022/03/08 14:11:03;;;;;;;0.45;0.45;;;;;;;;;;4994391;28;20444;-89
2022/03/08 14:13:33;;;;;;;0.20;0.20;;;;;;;;;;4962033;28;20386;-90
2022/03/08 14:16:06;;;;;;;0.20;0.20;;;;;;;;;;4978010;28;20375;-89
2022/03/08 14:18:33;;;;;;;0.10;0.10;;;;;;;;;;4961605;28;20050;-87
2022/03/08 14:20:59;;;;;;;0.30;0.30;;;;;;;;;;4977678;28;20049;-88
2022/03/08 14:23:25;;;;;;;0.20;0.20;;;;;;;;;;4977883;28;20422;-89
2022/03/08 14:25:57;;;;;;;1.23;1.08;;;;;;;;;;4993531;28;20035;-88
2022/03/08 14:28:42;;;;;;;0.30;0.30;;;;;;;;;;4977364;28;20054;-88
2022/03/08 14:31:18;;;;;;;0.10;0.10;;;;;;;;;;4993863;28;20490;-88
2022/03/08 14:33:56;;;;;;;0.47;0.30;;;;;;;;;;4977580;28;20104;-88
2022/03/08 14:36:29;;;;;;;0.10;0.10;;;;;;;;;;4993672;28;20042;-88
2022/03/08 14:38:55;;;;;;;0.10;0.10;;;;;;;;;;4977299;28;20504;-90
2022/03/08 14:41:24;;;;;;;0.43;0.30;;;;;;;;;;4993695;28;20038;-87
2022/03/08 14:43:50;;;;;;;0.20;0.20;;;;;;;;;;4978001;28;20034;-89